Terminal Aerodrome Forecast
Issued by NWS

Home | Current Version | Previous Version | Text Only | Print | Product List | Glossary On
Versions: 1 2 3 4 5 6 7 8 9 10 11 12 13 14 15 16
000
FTUS46 KPDT 250500
TAFPSC
TAF
KPSC 250522Z 2506/2606 24006KT P6SM FEW090
     FM250900 23005KT P6SM SKC
     FM251800 22006KT P6SM FEW100
     FM260200 VRB05KT P6SM FEW100=

USA.gov is the U.S. government's official web portal to all federal, state and local government web resources and services.